Terminal Aerodrome Forecast
Issued by NWS

Home | Current Version | Previous Version | Text Only | Print | Product List | Glossary On
Versions: 1 2 3 4 5 6 7 8 9 10 11 12 13 14 15
000
FTUS46 KSEW 260500
TAFOLM
TAF
KOLM 260536Z 2606/2706 22012G22KT P6SM SCT020 BKN035 BKN060
      TEMPO 2606/2610 -SHRA BKN020 BKN035 BKN060
     FM261000 21012KT P6SM -SHRA BKN020 BKN035
     FM261800 23010KT P6SM -SHRA SCT025 BKN040=

USA.gov is the U.S. government's official web portal to all federal, state and local government web resources and services.